createdAt,value
2018-06-22T00:02:19.257Z,100906.53
2018-06-22T00:04:48.280Z,100906.53
2018-06-22T00:07:17.360Z,100903.55
2018-06-22T00:09:46.475Z,100905.02
2018-06-22T00:12:15.474Z,100907.72
2018-06-22T00:14:44.490Z,100904.67
2018-06-22T00:17:13.485Z,100915.44
2018-06-22T00:19:42.641Z,100908.95
2018-06-22T00:22:11.429Z,100904.29
2018-06-22T00:24:40.993Z,100912.77
2018-06-22T00:27:10.161Z,100909.09
2018-06-22T00:29:39.114Z,100906.51
2018-06-22T00:32:08.090Z,100913.84
2018-06-22T00:34:36.719Z,100908.03
2018-06-22T00:37:05.420Z,100915.56
2018-06-22T00:39:34.059Z,100907.92
2018-06-22T00:42:02.807Z,100908.34
2018-06-22T00:44:31.526Z,100916.70
2018-06-22T00:47:00.175Z,100920.05
2018-06-22T00:49:28.843Z,100917.66
2018-06-22T00:51:57.484Z,100914.73
2018-06-22T00:54:26.160Z,100915.46
2018-06-22T00:56:54.823Z,100912.09
2018-06-22T00:59:23.496Z,100915.86
2018-06-22T01:01:52.325Z,100909.94
2018-06-22T01:04:21.041Z,100915.36
2018-06-22T01:06:49.713Z,100911.43
2018-06-22T01:09:18.417Z,100911.48
2018-06-22T01:11:47.082Z,100914.78
2018-06-22T01:14:17.082Z,100910.66
2018-06-22T01:16:46.007Z,100909.56
2018-06-22T01:19:15.570Z,100906.59
2018-06-22T01:21:44.490Z,100908.43
2018-06-22T01:24:13.447Z,100903.60
2018-06-22T01:26:42.106Z,100897.83
2018-06-22T01:29:10.798Z,100902.05
2018-06-22T01:31:39.511Z,100897.05
2018-06-22T01:34:08.131Z,100897.06
2018-06-22T01:36:36.796Z,100902.62
2018-06-22T01:39:05.497Z,100906.80
2018-06-22T01:41:34.196Z,100901.20
2018-06-22T01:44:02.830Z,100903.86
2018-06-22T01:46:31.483Z,100906.08
2018-06-22T01:49:00.161Z,100907.39
2018-06-22T01:51:28.809Z,100908.17
2018-06-22T01:53:57.477Z,100903.64
2018-06-22T01:56:26.098Z,100903.94
2018-06-22T01:58:55.150Z,100900.82
2018-06-22T02:01:24.398Z,100899.80
2018-06-22T02:03:53.621Z,100898.85
2018-06-22T02:06:22.522Z,100899.66
2018-06-22T02:08:54.293Z,100898.71
2018-06-22T02:11:23.111Z,100891.96
2018-06-22T02:13:52.307Z,100889.31
2018-06-22T02:16:21.602Z,100888.41
2018-06-22T02:18:50.889Z,100882.94
2018-06-22T02:21:19.815Z,100885.11
2018-06-22T02:23:48.764Z,100875.73
2018-06-22T02:26:17.879Z,100879.06
2018-06-22T02:28:46.721Z,100876.80
2018-06-22T02:31:15.691Z,100877.14
2018-06-22T02:33:44.807Z,100880.08
2018-06-22T02:36:13.663Z,100878.58
2018-06-22T02:38:42.910Z,100880.77
2018-06-22T02:41:12.585Z,100883.28
2018-06-22T02:43:41.780Z,100880.50
2018-06-22T02:46:10.675Z,100884.39
2018-06-22T02:48:42.401Z,100879.50
2018-06-22T02:51:11.449Z,100871.84
2018-06-22T02:53:40.284Z,100876.63
2018-06-22T02:56:09.394Z,100874.36
2018-06-22T02:58:38.568Z,100861.95
2018-06-22T03:01:07.770Z,100871.92
2018-06-22T03:03:36.711Z,100861.72
2018-06-22T03:06:05.671Z,100859.45
2018-06-22T03:08:34.688Z,100855.12
2018-06-22T03:11:04.150Z,100863.93
2018-06-22T03:13:33.153Z,100859.38
2018-06-22T03:16:02.158Z,100858.56
2018-06-22T03:18:31.460Z,100855.56
2018-06-22T03:21:00.592Z,100856.16
2018-06-22T03:23:29.453Z,100859.38
2018-06-22T03:25:58.818Z,100857.02
2018-06-22T03:28:27.909Z,100853.13
2018-06-22T03:30:56.962Z,100851.59
2018-06-22T03:33:26.199Z,100852.97
2018-06-22T03:35:57.321Z,100841.02
2018-06-22T03:38:26.425Z,100837.85
2018-06-22T03:40:55.986Z,100834.25
2018-06-22T03:43:25.076Z,100836.77
2018-06-22T03:45:54.781Z,100847.30
2018-06-22T03:48:23.748Z,100850.76
2018-06-22T03:50:53.224Z,100850.23
2018-06-22T03:53:22.250Z,100843.43
2018-06-22T03:55:51.193Z,100845.59
2018-06-22T03:58:20.583Z,100842.90
2018-06-22T04:00:49.504Z,100838.25
2018-06-22T04:03:18.984Z,100836.33
2018-06-22T04:05:47.969Z,100835.17
2018-06-22T04:08:17.446Z,100838.14
2018-06-22T04:10:46.353Z,100837.20
2018-06-22T04:13:15.452Z,100842.86
2018-06-22T04:15:45.342Z,100847.09
2018-06-22T04:18:14.222Z,100832.48
2018-06-22T04:20:43.496Z,100839.12
2018-06-22T04:23:12.426Z,100831.16
2018-06-22T04:25:41.653Z,100833.72
2018-06-22T04:28:10.576Z,100832.23
2018-06-22T04:30:39.093Z,100828.58
2018-06-22T04:33:07.754Z,100825.83
2018-06-22T04:35:36.486Z,100823.98
2018-06-22T04:38:05.569Z,100830.58
2018-06-22T04:40:36.628Z,100829.44
2018-06-22T04:43:10.362Z,100829.39
2018-06-22T04:45:39.447Z,100831.09
2018-06-22T04:48:08.091Z,100827.16
2018-06-22T04:50:36.776Z,100840.11
2018-06-22T04:53:10.078Z,100825.59
2018-06-22T04:55:38.810Z,100827.42
2018-06-22T04:58:07.477Z,100828.91
2018-06-22T05:00:36.185Z,100824.44
2018-06-22T05:03:04.879Z,100828.88
2018-06-22T05:05:33.586Z,100830.39
2018-06-22T05:08:02.217Z,100828.80
2018-06-22T05:10:30.951Z,100828.80
2018-06-22T05:13:00.630Z,100834.69
2018-06-22T05:15:29.268Z,100829.23
2018-06-22T05:17:57.928Z,100830.88
2018-06-22T05:20:26.561Z,100824.79
2018-06-22T05:22:55.259Z,100825.16
2018-06-22T05:25:23.983Z,100819.75
2018-06-22T05:27:52.719Z,100823.41
2018-06-22T05:30:21.585Z,100824.16
2018-06-22T05:32:51.228Z,100823.69
2018-06-22T05:35:23.404Z,100829.75
2018-06-22T05:37:52.081Z,100827.08
2018-06-22T05:40:23.899Z,100834.13
2018-06-22T05:42:59.462Z,100825.68
2018-06-22T05:45:30.272Z,100821.20
2018-06-22T05:48:02.689Z,100821.62
2018-06-22T05:50:32.902Z,100819.59
2018-06-22T05:53:06.640Z,100820.52
2018-06-22T05:55:36.413Z,100826.06
2018-06-22T05:58:10.140Z,100819.00
2018-06-22T06:00:41.218Z,100822.58
2018-06-22T06:03:21.890Z,100823.87
2018-06-22T06:06:00.983Z,100823.62
2018-06-22T06:08:34.165Z,100824.36
2018-06-22T06:11:04.839Z,100826.55
2018-06-22T06:13:36.598Z,100827.30
2018-06-22T06:16:08.322Z,100831.34
2018-06-22T06:18:39.291Z,100828.14
2018-06-22T06:21:08.323Z,100818.70
2018-06-22T06:23:40.000Z,100822.38
2018-06-22T06:26:09.473Z,100825.03
2018-06-22T06:28:42.104Z,100817.45
2018-06-22T06:31:16.537Z,100819.16
2018-06-22T06:33:57.487Z,100825.87
2018-06-22T06:36:28.687Z,100816.27
2018-06-22T06:38:58.356Z,100836.17
2018-06-22T06:41:27.465Z,100824.30
2018-06-22T06:43:59.815Z,100827.22
2018-06-22T06:46:28.762Z,100821.66
2018-06-22T06:49:03.725Z,100833.80
2018-06-22T06:51:35.621Z,100832.06
2018-06-22T06:54:04.863Z,100837.08
2018-06-22T06:56:34.453Z,100847.91
2018-06-22T06:59:03.462Z,100849.57
2018-06-22T07:01:32.784Z,100844.80
2018-06-22T07:04:02.187Z,100849.28
2018-06-22T07:06:32.626Z,100842.22
2018-06-22T07:09:01.521Z,100847.95
2018-06-22T07:11:30.607Z,100843.97
2018-06-22T07:14:00.869Z,100846.38
2018-06-22T07:16:30.090Z,100852.29
2018-06-22T07:19:02.031Z,100844.97
2018-06-22T07:21:34.445Z,100843.34
2018-06-22T07:24:05.133Z,100849.88
2018-06-22T07:26:31.914Z,100855.48
2018-06-22T07:29:03.618Z,100849.91
2018-06-22T07:31:32.704Z,100848.01
2018-06-22T07:34:01.583Z,100854.30
2018-06-22T07:36:30.480Z,100856.96
2018-06-22T07:39:00.516Z,100855.47
2018-06-22T07:41:34.602Z,100853.83
2018-06-22T07:44:03.388Z,100858.98
2018-06-22T07:46:32.670Z,100855.79
2018-06-22T07:49:08.422Z,100861.66
2018-06-22T07:51:38.713Z,100854.91
2018-06-22T07:54:09.864Z,100857.53
2018-06-22T07:56:42.279Z,100857.51
2018-06-22T07:59:11.763Z,100843.84
2018-06-22T08:01:40.870Z,100852.06
2018-06-22T08:04:10.620Z,100848.11
2018-06-22T08:06:39.922Z,100844.88
2018-06-22T08:09:09.229Z,100843.61
2018-06-22T08:11:39.466Z,100842.61
2018-06-22T08:14:09.464Z,100845.23
2018-06-22T08:16:38.488Z,100838.39
2018-06-22T08:19:10.315Z,100850.34
2018-06-22T08:21:39.355Z,100838.80
2018-06-22T08:24:08.456Z,100842.80
2018-06-22T08:26:38.561Z,100845.84
2018-06-22T08:29:07.880Z,100847.77
2018-06-22T08:31:36.883Z,100843.70
2018-06-22T08:34:07.321Z,100839.88
2018-06-22T08:36:37.267Z,100840.69
2018-06-22T08:39:06.269Z,100853.88
2018-06-22T08:41:35.255Z,100849.98
2018-06-22T08:44:04.361Z,100851.64
2018-06-22T08:46:33.272Z,100845.07
2018-06-22T08:49:03.121Z,100848.25
2018-06-22T08:51:32.989Z,100845.30
2018-06-22T08:54:09.912Z,100852.30
2018-06-22T08:56:38.613Z,100857.34
2018-06-22T08:59:07.303Z,100849.48
2018-06-22T09:02:49.356Z,100855.94
2018-06-22T09:05:19.590Z,100856.20
2018-06-22T09:07:48.270Z,100861.59
2018-06-22T09:10:16.958Z,100859.17
2018-06-22T09:12:45.691Z,100861.84
2018-06-22T09:15:14.451Z,100853.89
2018-06-22T09:17:43.396Z,100856.77
2018-06-22T09:20:12.061Z,100851.20
2018-06-22T09:22:40.762Z,100855.38
2018-06-22T09:25:12.112Z,100861.49
2018-06-22T09:27:40.845Z,100869.82
2018-06-22T09:30:09.519Z,100865.00
2018-06-22T09:32:38.232Z,100870.89
2018-06-22T09:35:06.934Z,100870.97
2018-06-22T09:37:35.823Z,100863.94
2018-06-22T09:40:04.540Z,100870.36
2018-06-22T09:42:33.270Z,100864.84
2018-06-22T09:45:02.250Z,100870.84
2018-06-22T09:47:30.836Z,100870.64
2018-06-22T09:49:59.833Z,100868.28
2018-06-22T09:52:32.614Z,100880.00
2018-06-22T09:55:01.416Z,100888.86
2018-06-22T09:57:30.537Z,100895.84
2018-06-22T09:59:59.768Z,100892.13
2018-06-22T10:02:31.178Z,100894.50
2018-06-22T10:04:59.844Z,100888.27
2018-06-22T10:07:28.849Z,100896.08
2018-06-22T10:09:57.660Z,100893.31
2018-06-22T10:12:33.047Z,100897.59
2018-06-22T10:15:01.792Z,100909.55
2018-06-22T10:17:30.471Z,100899.94
2018-06-22T10:20:02.700Z,100902.25
2018-06-22T10:22:31.792Z,100898.91
2018-06-22T10:25:00.486Z,100907.09
2018-06-22T10:27:29.158Z,100902.28
2018-06-22T10:29:58.502Z,100894.48
2018-06-22T10:32:27.554Z,100891.02
2018-06-22T10:34:56.928Z,100883.80
2018-06-22T10:37:25.924Z,100892.56
2018-06-22T10:39:54.694Z,100896.25
2018-06-22T10:42:23.908Z,100891.11
2018-06-22T10:44:53.223Z,100889.91
2018-06-22T10:47:21.949Z,100890.96
2018-06-22T10:49:50.675Z,100899.20
2018-06-22T10:52:19.335Z,100892.65
2018-06-22T10:54:48.010Z,100902.64
2018-06-22T10:57:16.663Z,100900.91
2018-06-22T10:59:45.455Z,100906.41
2018-06-22T11:02:14.104Z,100913.45
2018-06-22T11:04:42.868Z,100904.92
2018-06-22T11:07:11.502Z,100911.70
2018-06-22T11:09:40.599Z,100906.30
2018-06-22T11:12:10.915Z,100897.66
2018-06-22T11:14:40.239Z,100908.00
2018-06-22T11:17:09.009Z,100908.73
2018-06-22T11:19:37.617Z,100914.70
2018-06-22T11:22:06.406Z,100919.06
2018-06-22T11:24:35.197Z,100916.23
2018-06-22T11:27:03.796Z,100925.05
2018-06-22T11:29:33.037Z,100926.00
2018-06-22T11:32:01.679Z,100924.98
2018-06-22T11:34:31.152Z,100915.80
2018-06-22T11:36:59.869Z,100899.40
2018-06-22T11:39:28.562Z,100905.44
2018-06-22T11:42:00.336Z,100907.75
2018-06-22T11:44:29.058Z,100909.38
2018-06-22T11:46:57.798Z,100913.00
2018-06-22T11:49:28.277Z,100908.03
2018-06-22T11:51:57.432Z,100908.78
2018-06-22T11:54:26.141Z,100915.09
2018-06-22T11:57:07.074Z,100916.01
2018-06-22T11:59:37.540Z,100913.34
2018-06-22T12:02:06.187Z,100912.27
2018-06-22T12:04:41.074Z,100908.05
2018-06-22T12:07:31.664Z,100910.33
2018-06-22T12:10:03.352Z,100918.10
2018-06-22T12:12:32.610Z,100901.47
2018-06-22T12:15:02.908Z,100913.33
2018-06-22T12:17:34.976Z,100912.69
2018-06-22T12:20:06.019Z,100911.97
2018-06-22T12:22:36.333Z,100909.48
2018-06-22T12:25:07.030Z,100909.69
2018-06-22T12:27:37.233Z,100909.50
2018-06-22T12:30:06.369Z,100902.41
2018-06-22T12:32:36.694Z,100906.12
2018-06-22T12:35:07.317Z,100901.30
2018-06-22T12:37:41.202Z,100900.89
2018-06-22T12:40:10.633Z,100910.20
2018-06-22T12:42:40.656Z,100910.14
2018-06-22T12:45:14.212Z,100922.02
2018-06-22T12:47:43.735Z,100917.84
2018-06-22T12:50:14.045Z,100938.13
2018-06-22T12:52:43.099Z,100936.75
2018-06-22T12:55:14.696Z,100934.47
2018-06-22T12:57:45.884Z,100930.94
2018-06-22T13:00:15.202Z,100919.80
2018-06-22T13:02:46.817Z,100917.72
2018-06-22T13:05:16.866Z,100920.55
2018-06-22T13:07:50.793Z,100910.09
2018-06-22T13:10:22.080Z,100913.22
2018-06-22T13:12:52.373Z,100908.73
2018-06-22T13:15:25.452Z,100914.55
2018-06-22T13:17:54.349Z,100921.51
2018-06-22T13:20:27.513Z,100909.55
2018-06-22T13:22:56.536Z,100906.51
2018-06-22T13:25:33.284Z,100905.97
2018-06-22T13:28:05.270Z,100906.89
2018-06-22T13:30:37.040Z,100906.95
2018-06-22T13:33:05.924Z,100911.67
2018-06-22T13:35:36.262Z,100912.63
2018-06-22T13:38:05.216Z,100926.58
2018-06-22T13:40:35.660Z,100922.92
2018-06-22T13:43:08.655Z,100901.50
2018-06-22T13:45:38.174Z,100897.59
2018-06-22T13:48:08.356Z,100885.02
2018-06-22T13:50:47.439Z,100891.72
2018-06-22T13:53:17.625Z,100892.41
2018-06-22T13:55:47.801Z,100902.04
2018-06-22T13:58:16.848Z,100898.02
2018-06-22T14:00:47.335Z,100905.31
2018-06-22T14:03:15.992Z,100895.02
2018-06-22T14:05:47.354Z,100894.49
2018-06-22T14:08:16.035Z,100885.45
2018-06-22T14:10:44.745Z,100892.20
2018-06-22T14:13:13.386Z,100893.79
2018-06-22T14:15:42.552Z,100899.64
2018-06-22T14:18:17.723Z,100899.39
2018-06-22T14:20:47.004Z,100892.59
2018-06-22T14:23:15.748Z,100893.06
2018-06-22T14:25:44.438Z,100897.45
2018-06-22T14:28:13.441Z,100908.11
2018-06-22T14:30:42.314Z,100913.08
2018-06-22T14:33:11.007Z,100909.13
2018-06-22T14:35:39.725Z,100910.73
2018-06-22T14:38:08.477Z,100925.50
2018-06-22T14:40:37.159Z,100915.97
2018-06-22T14:43:05.955Z,100929.70
2018-06-22T14:45:34.585Z,100926.85
2018-06-22T14:48:03.589Z,100917.72
2018-06-22T14:50:32.342Z,100928.41
2018-06-22T14:53:00.955Z,100918.25
2018-06-22T14:55:33.179Z,100926.47
2018-06-22T14:58:07.887Z,100921.73
2018-06-22T15:00:54.379Z,100895.23
2018-06-22T15:03:26.212Z,100915.06
2018-06-22T15:05:58.003Z,100914.75
2018-06-22T15:08:26.665Z,100913.54
2018-06-22T15:10:55.391Z,100918.37
2018-06-22T15:13:24.700Z,100920.94
2018-06-22T15:15:54.631Z,100915.09
2018-06-22T15:18:24.145Z,100923.28
2018-06-22T15:20:53.435Z,100916.08
2018-06-22T15:23:22.362Z,100919.61
2018-06-22T15:25:52.022Z,100918.52
2018-06-22T15:28:20.898Z,100909.75
2018-06-22T15:30:49.624Z,100916.33
2018-06-22T15:33:18.312Z,100915.66
2018-06-22T15:35:56.216Z,100924.36
2018-06-22T15:38:42.953Z,100926.52
2018-06-22T15:41:29.859Z,100925.05
2018-06-22T15:44:16.749Z,100927.70
2018-06-22T15:46:58.502Z,100921.73
2018-06-22T15:49:30.282Z,100920.37
2018-06-22T15:52:17.209Z,100922.05
2018-06-22T15:54:49.796Z,100917.98
2018-06-22T15:57:18.509Z,100917.06
2018-06-22T15:59:47.266Z,100916.67
2018-06-22T16:02:15.962Z,100915.88
2018-06-22T16:04:44.632Z,100916.64
2018-06-22T16:07:13.829Z,100930.45
2018-06-22T16:09:42.544Z,100941.22
2018-06-22T16:12:11.365Z,100952.80
2018-06-22T16:14:40.056Z,100956.29
2018-06-22T16:17:27.693Z,100951.26
2018-06-22T16:20:02.033Z,100951.55
2018-06-22T16:22:48.703Z,100943.42
2018-06-22T16:25:29.461Z,100979.91
2018-06-22T16:28:01.091Z,100998.56
2018-06-22T16:30:29.881Z,101011.56
2018-06-22T16:32:58.966Z,101026.97
2018-06-22T16:35:30.813Z,101020.26
2018-06-22T16:37:59.594Z,101032.11
2018-06-22T16:40:28.251Z,101045.63
2018-06-22T16:42:56.926Z,101068.33
2018-06-22T16:45:25.975Z,101068.84
2018-06-22T16:47:54.648Z,101064.43
2018-06-22T16:50:23.305Z,101066.06
2018-06-22T16:52:55.389Z,101065.23
2018-06-22T16:55:25.643Z,101070.19
2018-06-22T16:57:54.375Z,101059.70
2018-06-22T17:00:23.042Z,101069.06
2018-06-22T17:02:51.812Z,101060.48
2018-06-22T17:05:20.458Z,101056.22
2018-06-22T17:07:58.189Z,101047.30
2018-06-22T17:10:30.010Z,101048.82
2018-06-22T17:13:07.420Z,101047.83
2018-06-22T17:15:36.087Z,101035.73
2018-06-22T17:18:07.788Z,101019.70
2018-06-22T17:20:36.420Z,101005.20
2018-06-22T17:23:05.128Z,101000.28
2018-06-22T17:25:36.681Z,101001.50
2018-06-22T17:28:05.435Z,100996.45
2018-06-22T17:30:34.200Z,100988.91
2018-06-22T17:33:02.892Z,100986.77
2018-06-22T17:35:31.568Z,100983.34
2018-06-22T17:38:00.229Z,100991.39
2018-06-22T17:40:29.000Z,100997.30
2018-06-22T17:42:57.721Z,100995.59
2018-06-22T17:45:26.329Z,100998.10
2018-06-22T17:47:55.021Z,101002.32
2018-06-22T17:50:23.677Z,101006.23
2018-06-22T17:52:52.396Z,101001.23
2018-06-22T17:55:21.077Z,101007.02
2018-06-22T17:57:49.776Z,101007.58
2018-06-22T18:00:18.436Z,101005.03
2018-06-22T18:02:53.139Z,101009.14
2018-06-22T18:05:22.403Z,101014.58
2018-06-22T18:07:51.102Z,101018.72
2018-06-22T18:10:19.761Z,101016.77
2018-06-22T18:12:48.502Z,101015.02
2018-06-22T18:15:17.120Z,101020.55
2018-06-22T18:17:45.903Z,101018.23
2018-06-22T18:20:14.607Z,101020.52
2018-06-22T18:22:43.400Z,101024.02
2018-06-22T18:25:11.987Z,101025.30
2018-06-22T18:27:40.676Z,101023.83
2018-06-22T18:30:09.346Z,101026.72
2018-06-22T18:32:38.060Z,101022.52
2018-06-22T18:35:06.716Z,101032.00
2018-06-22T18:37:37.989Z,101032.27
2018-06-22T18:40:04.153Z,101035.36
2018-06-22T18:42:32.859Z,101038.84
2018-06-22T18:45:01.622Z,101037.13
2018-06-22T18:47:30.406Z,101041.84
2018-06-22T18:49:59.101Z,101051.06
2018-06-22T18:52:27.798Z,101049.84
2018-06-22T18:55:14.430Z,101046.89
2018-06-22T18:57:45.987Z,101050.94
2018-06-22T19:00:22.415Z,101053.11
2018-06-22T19:02:51.233Z,101056.06
2018-06-22T19:05:20.052Z,101052.02
2018-06-22T19:07:50.769Z,101061.40
2018-06-22T19:10:20.512Z,101056.05
2018-06-22T19:12:49.221Z,101056.22
2018-06-22T19:15:17.883Z,101065.88
2018-06-22T19:17:46.655Z,101066.80
2018-06-22T19:20:15.317Z,101073.87
2018-06-22T19:22:44.005Z,101079.83
2018-06-22T19:25:12.785Z,101078.72
2018-06-22T19:27:42.204Z,101091.05
2018-06-22T19:30:10.876Z,101085.17
2018-06-22T19:32:39.669Z,101089.93
2018-06-22T19:35:08.349Z,101087.74
2018-06-22T19:37:37.037Z,101101.86
2018-06-22T19:40:05.690Z,101096.80
2018-06-22T19:42:34.402Z,101095.50
2018-06-22T19:45:03.041Z,101095.70
2018-06-22T19:47:49.942Z,101108.93
2018-06-22T19:50:18.519Z,101109.88
2018-06-22T19:52:59.181Z,101110.02
2018-06-22T19:55:27.849Z,101115.64
2018-06-22T19:57:56.535Z,101116.20
2018-06-22T20:00:25.213Z,101123.23
2018-06-22T20:02:53.898Z,101127.14
2018-06-22T20:05:22.581Z,101126.41
2018-06-22T20:07:51.276Z,101126.70
2018-06-22T20:10:19.923Z,101131.48
2018-06-22T20:12:48.918Z,101133.58
2018-06-22T20:15:17.620Z,101138.74
2018-06-22T20:17:46.364Z,101138.56
2018-06-22T20:20:15.026Z,101134.30
2018-06-22T20:22:44.168Z,101142.49
2018-06-22T20:25:13.260Z,101138.73
2018-06-22T20:27:41.955Z,101142.83
2018-06-22T20:30:10.679Z,101153.59
2018-06-22T20:32:39.330Z,101156.82
2018-06-22T20:35:08.041Z,101158.44
2018-06-22T20:37:42.701Z,101152.36
2018-06-22T20:40:23.466Z,101161.11
2018-06-22T20:42:52.825Z,101157.02
2018-06-22T20:45:37.050Z,101151.58
2018-06-22T20:48:23.832Z,101163.86
2018-06-22T20:50:52.556Z,101161.44
2018-06-22T20:53:31.925Z,101161.84
2018-06-22T20:56:00.646Z,101155.93
2018-06-22T20:58:30.744Z,101159.21
2018-06-22T21:00:59.490Z,101166.81
2018-06-22T21:03:28.111Z,101164.62
2018-06-22T21:05:56.776Z,101168.63
2018-06-22T21:08:25.522Z,101169.81
2018-06-22T21:10:54.172Z,101177.02
2018-06-22T21:13:23.989Z,101181.44
2018-06-22T21:15:52.600Z,101181.64
2018-06-22T21:18:21.406Z,101186.67
2018-06-22T21:20:50.096Z,101186.34
2018-06-22T21:23:18.794Z,101190.53
2018-06-22T21:25:47.518Z,101193.16
2018-06-22T21:28:25.444Z,101187.38
2018-06-22T21:31:12.363Z,101187.48
2018-06-22T21:33:41.071Z,101192.19
2018-06-22T21:36:09.850Z,101188.95
2018-06-22T21:38:41.127Z,101203.06
2018-06-22T21:41:09.899Z,101192.77
2018-06-22T21:43:38.597Z,101196.41
2018-06-22T21:46:07.242Z,101197.87
2018-06-22T21:48:35.922Z,101201.44
2018-06-22T21:51:04.613Z,101200.80
2018-06-22T21:53:33.316Z,101201.34
2018-06-22T21:56:02.040Z,101202.33
2018-06-22T21:58:30.783Z,101202.88
2018-06-22T22:00:59.481Z,101213.81
2018-06-22T22:03:28.226Z,101203.37
2018-06-22T22:05:56.891Z,101210.97
2018-06-22T22:08:25.571Z,101213.07
2018-06-22T22:10:54.242Z,101218.59
2018-06-22T22:13:22.951Z,101207.98
2018-06-22T22:15:51.603Z,101214.30
2018-06-22T22:18:20.241Z,101219.87
2018-06-22T22:20:48.955Z,101215.50
2018-06-22T22:23:17.792Z,101212.91
2018-06-22T22:25:49.313Z,101210.04
2018-06-22T22:28:17.981Z,101210.89
2018-06-22T22:30:46.685Z,101212.29
2018-06-22T22:33:15.342Z,101214.55
2018-06-22T22:35:45.004Z,101208.89
2018-06-22T22:38:14.239Z,101211.14
2018-06-22T22:40:42.948Z,101207.08
2018-06-22T22:43:11.733Z,101214.62
2018-06-22T22:45:40.545Z,101217.86
2018-06-22T22:48:09.185Z,101209.73
2018-06-22T22:50:37.906Z,101214.69
2018-06-22T22:53:07.673Z,101209.86
2018-06-22T22:55:36.412Z,101210.41
2018-06-22T22:58:05.179Z,101209.28
2018-06-22T23:00:33.964Z,101210.03
2018-06-22T23:03:02.636Z,101220.27
2018-06-22T23:05:31.590Z,101217.09
2018-06-22T23:08:03.069Z,101215.93
2018-06-22T23:10:31.616Z,101216.71
2018-06-22T23:13:00.330Z,101211.78
2018-06-22T23:15:29.447Z,101210.64
2018-06-22T23:17:58.681Z,101198.23
2018-06-22T23:20:29.518Z,101205.61
2018-06-22T23:23:30.108Z,101209.48
2018-06-22T23:26:00.603Z,101208.55
2018-06-22T23:28:29.541Z,101206.84
2018-06-22T23:30:58.992Z,101203.36
2018-06-22T23:33:29.874Z,101210.99
2018-06-22T23:35:59.127Z,101209.80
2018-06-22T23:38:28.723Z,101211.61
2018-06-22T23:40:57.624Z,101205.95
2018-06-22T23:43:26.521Z,101208.28
2018-06-22T23:45:55.931Z,101210.56
2018-06-22T23:48:25.356Z,101203.48
2018-06-22T23:50:54.885Z,101209.78
2018-06-22T23:53:23.979Z,101212.63
2018-06-22T23:55:52.793Z,101207.64
2018-06-22T23:58:22.122Z,101204.17
